Time;durP1;ratioP1;P1;durP2;ratioP2;P2;SDS_P1;SDS_P2;PMS_P1;PMS_P2;Temp;Humidity;BMP_temperature;BMP_pressure;BME280_temperature;BME280_humidity;BME280_pressure;Samples;Min_cycle;Max_cycle;Signal;HPM_P1;HPM_P2
2022/01/17 00:01:14;;;;;;;86.15;31.10;;;0.00;99.90;;;;;;5057075;28;20021;-82
2022/01/17 00:03:41;;;;;;;76.40;29.70;;;0.00;99.90;;;;;;5054915;28;20031;-83
2022/01/17 00:06:07;;;;;;;70.07;27.23;;;-0.10;99.90;;;;;;5055758;28;20394;-82
2022/01/17 00:08:33;;;;;;;88.57;28.33;;;-0.10;99.90;;;;;;5056938;28;20041;-82
2022/01/17 00:11:00;;;;;;;68.00;28.27;;;-0.10;99.90;;;;;;5056045;28;20611;-81
2022/01/17 00:13:28;;;;;;;74.97;29.73;;;-0.20;99.90;;;;;;5057020;28;20029;-82
2022/01/17 00:16:07;;;;;;;69.80;31.13;;;-0.20;99.90;;;;;;5055779;28;20113;-82
2022/01/17 00:21:01;;;;;;;62.08;26.67;;;-0.20;99.90;;;;;;5044243;28;20021;-82
2022/01/17 00:23:27;;;;;;;92.00;27.05;;;-0.30;99.90;;;;;;5055354;28;20044;-81
2022/01/17 00:25:53;;;;;;;75.93;30.05;;;-0.30;99.90;;;;;;5057164;28;20070;-81
2022/01/17 00:28:18;;;;;;;66.07;31.30;;;-0.20;99.90;;;;;;5056771;28;20043;-81
2022/01/17 00:30:44;;;;;;;67.43;29.23;;;-0.30;99.90;;;;;;5057207;28;20025;-81
2022/01/17 00:33:11;;;;;;;89.18;30.70;;;-0.30;99.90;;;;;;5056929;28;20025;-81
2022/01/17 00:35:37;;;;;;;80.22;29.83;;;-0.30;99.90;;;;;;5057097;28;20013;-82
2022/01/17 00:38:03;;;;;;;129.73;33.20;;;-0.30;99.90;;;;;;5056041;28;20037;-82
2022/01/17 00:40:29;;;;;;;71.30;29.77;;;-0.30;99.90;;;;;;5057109;28;20024;-81
2022/01/17 00:42:55;;;;;;;141.73;33.65;;;-0.30;99.90;;;;;;5055407;28;20033;-81
2022/01/17 00:45:27;;;;;;;116.75;34.17;;;-0.30;99.90;;;;;;5056807;28;20028;-82
2022/01/17 00:47:55;;;;;;;100.90;29.42;;;-0.30;99.90;;;;;;5056775;28;20028;-82
2022/01/17 00:50:25;;;;;;;109.38;31.73;;;-0.30;99.90;;;;;;5057134;28;20017;-82
2022/01/17 00:52:51;;;;;;;86.28;29.77;;;-0.40;99.90;;;;;;5055810;28;20035;-82
2022/01/17 00:55:17;;;;;;;86.43;26.33;;;-0.40;99.90;;;;;;5057050;28;20505;-82
2022/01/17 00:57:43;;;;;;;119.85;27.23;;;-0.40;99.90;;;;;;5056599;28;20028;-82
2022/01/17 01:00:10;;;;;;;134.23;31.30;;;-0.40;99.90;;;;;;5055288;28;20028;-82
2022/01/17 01:02:36;;;;;;;79.15;28.45;;;-0.40;99.90;;;;;;5056687;28;20481;-82
2022/01/17 01:05:04;;;;;;;117.95;26.75;;;-0.40;99.90;;;;;;5056695;28;20487;-81
2022/01/17 01:07:29;;;;;;;104.43;28.75;;;-0.40;99.90;;;;;;5056878;28;20477;-82
2022/01/17 01:10:09;;;;;;;144.65;31.45;;;-0.40;99.90;;;;;;5058958;28;20445;-82
2022/01/17 01:12:36;;;;;;;125.65;29.83;;;-0.50;99.90;;;;;;5060167;28;20032;-82
2022/01/17 01:15:06;;;;;;;136.63;28.02;;;-0.50;99.90;;;;;;5060087;28;20430;-82
2022/01/17 01:17:35;;;;;;;101.43;27.65;;;-0.50;99.90;;;;;;5059254;28;20021;-82
2022/01/17 01:20:22;;;;;;;113.75;27.30;;;-0.50;99.90;;;;;;5058738;28;20413;-82
2022/01/17 01:28:17;;;;;;;137.35;24.48;;;-0.50;99.90;;;;;;5059733;28;20115;-82
2022/01/17 01:30:47;;;;;;;209.50;27.27;;;-0.50;99.90;;;;;;5060029;28;20509;-82
2022/01/17 01:33:20;;;;;;;153.88;27.85;;;-0.60;99.90;;;;;;5058535;28;20025;-82
2022/01/17 01:35:46;;;;;;;149.50;26.65;;;-0.60;99.90;;;;;;5058446;28;20033;-82
2022/01/17 01:38:12;;;;;;;176.43;27.88;;;-0.50;99.90;;;;;;5058363;28;20029;-81
2022/01/17 01:40:38;;;;;;;111.93;25.85;;;-0.60;99.90;;;;;;5059978;28;20032;-82
2022/01/17 01:43:04;;;;;;;167.02;30.88;;;-0.60;99.90;;;;;;5057844;28;20032;-81
2022/01/17 01:45:30;;;;;;;257.88;33.45;;;-0.60;99.90;;;;;;5058472;28;20516;-81
2022/01/17 01:47:56;;;;;;;285.45;32.20;;;-0.60;99.90;;;;;;5058486;28;20028;-82
2022/01/17 01:50:22;;;;;;;214.55;31.65;;;-0.60;99.90;;;;;;5059611;28;20421;-81
2022/01/17 01:52:49;;;;;;;140.75;27.27;;;-0.60;99.90;;;;;;5058242;28;20504;-81
2022/01/17 01:55:18;;;;;;;157.80;24.58;;;-0.60;99.90;;;;;;5059627;28;20017;-82
2022/01/17 01:57:44;;;;;;;144.73;30.60;;;-0.70;99.90;;;;;;5059512;28;20029;-82
2022/01/17 02:00:14;;;;;;;117.78;25.08;;;-0.60;99.90;;;;;;5059290;28;20036;-81
2022/01/17 02:02:40;;;;;;;91.05;29.15;;;-0.70;99.90;;;;;;5059262;28;20037;-82
2022/01/17 02:05:07;;;;;;;140.07;26.30;;;-0.60;99.90;;;;;;5059374;28;20074;-82
2022/01/17 02:07:33;;;;;;;132.85;26.67;;;-0.60;99.90;;;;;;5059176;28;20024;-82
2022/01/17 02:09:58;;;;;;;134.30;28.38;;;-0.60;99.90;;;;;;5059357;28;20029;-82
2022/01/17 02:12:28;;;;;;;84.25;27.33;;;-0.70;99.90;;;;;;5059032;28;20036;-81
2022/01/17 02:14:54;;;;;;;184.38;29.40;;;-0.70;99.90;;;;;;5057861;28;20493;-81
2022/01/17 02:17:23;;;;;;;158.85;27.95;;;-0.60;99.90;;;;;;5057967;28;20032;-81
2022/01/17 02:20:06;;;;;;;125.90;25.98;;;-0.60;99.90;;;;;;5047258;28;20036;-81
2022/01/17 02:22:32;;;;;;;133.32;29.00;;;-0.60;99.90;;;;;;5057797;28;20037;-82
2022/01/17 02:24:59;;;;;;;76.53;28.48;;;-0.60;99.90;;;;;;5057612;28;20580;-82
2022/01/17 02:27:25;;;;;;;71.20;29.33;;;-0.70;99.90;;;;;;5058762;28;20032;-81
2022/01/17 02:29:51;;;;;;;81.55;28.80;;;-0.60;99.90;;;;;;5058703;28;20563;-82
2022/01/17 02:32:17;;;;;;;77.43;27.83;;;-0.60;99.90;;;;;;5058800;28;20025;-82
2022/01/17 02:34:43;;;;;;;68.57;30.58;;;-0.50;99.90;;;;;;5058630;28;20078;-81
2022/01/17 02:37:11;;;;;;;108.35;30.05;;;-0.40;99.90;;;;;;5058567;28;20135;-81
2022/01/17 02:39:38;;;;;;;103.72;30.98;;;-0.40;99.90;;;;;;5057477;28;20025;-81
2022/01/17 02:42:05;;;;;;;88.32;32.35;;;-0.40;99.90;;;;;;5058565;28;20493;-81
2022/01/17 02:44:31;;;;;;;86.75;28.77;;;-0.40;99.90;;;;;;5057071;28;20099;-81
2022/01/17 02:47:00;;;;;;;65.32;28.63;;;-0.40;99.90;;;;;;5057265;28;20040;-81
2022/01/17 02:49:26;;;;;;;90.13;28.20;;;-0.30;99.90;;;;;;5058408;28;20021;-82
2022/01/17 02:51:53;;;;;;;72.28;25.85;;;-0.30;99.90;;;;;;5057244;28;20055;-82
2022/01/17 02:54:19;;;;;;;95.30;27.58;;;-0.40;99.90;;;;;;5058688;28;20077;-82
2022/01/17 02:56:45;;;;;;;78.22;26.52;;;-0.50;99.90;;;;;;5058236;28;20511;-82
2022/01/17 02:59:11;;;;;;;91.72;26.73;;;-0.50;99.90;;;;;;5058033;28;20025;-82
2022/01/17 03:01:36;;;;;;;60.45;25.60;;;-0.50;99.90;;;;;;5058481;28;20051;-81
2022/01/17 03:04:04;;;;;;;70.25;27.55;;;-0.50;99.90;;;;;;5058271;28;20477;-82
2022/01/17 03:06:30;;;;;;;62.08;27.42;;;-0.50;99.90;;;;;;5058474;28;20110;-81
2022/01/17 03:08:56;;;;;;;86.22;27.48;;;-0.40;99.90;;;;;;5056972;28;20501;-81
2022/01/17 03:11:26;;;;;;;98.95;26.42;;;-0.50;99.90;;;;;;5057304;28;20508;-81
2022/01/17 03:13:52;;;;;;;;;;;-0.50;99.90;;;;;;5058499;28;20114;-81
2022/01/17 03:16:19;;;;;;;123.13;27.35;;;-0.50;99.90;;;;;;5058174;28;19905;-81
2022/01/17 03:18:50;;;;;;;87.88;27.05;;;-0.60;99.90;;;;;;5058179;28;20021;-81
2022/01/17 03:21:17;;;;;;;63.70;27.02;;;-0.60;99.90;;;;;;5058289;28;20120;-81
2022/01/17 03:23:44;;;;;;;77.68;28.15;;;-0.60;99.90;;;;;;5058083;28;20028;-82
2022/01/17 03:26:10;;;;;;;128.57;31.50;;;-0.60;99.90;;;;;;5056853;28;20025;-81
2022/01/17 03:28:37;;;;;;;77.57;30.65;;;-0.60;99.90;;;;;;5057632;28;20100;-82
2022/01/17 03:31:05;;;;;;;157.32;33.95;;;-0.60;99.90;;;;;;5056033;28;20397;-81
2022/01/17 03:33:30;;;;;;;104.20;35.35;;;-0.50;99.90;;;;;;5056639;28;20047;-81
2022/01/17 03:35:57;;;;;;;189.50;35.60;;;-0.50;99.90;;;;;;5058064;28;20025;-82
2022/01/17 03:38:27;;;;;;;161.55;32.80;;;-0.40;99.90;;;;;;5057713;28;20025;-82
2022/01/17 03:40:53;;;;;;;243.57;34.95;;;-0.40;99.90;;;;;;5058857;28;20116;-81
2022/01/17 03:43:21;;;;;;;233.13;36.22;;;-0.40;99.90;;;;;;5056856;28;20033;-81
2022/01/17 03:45:49;;;;;;;114.03;31.10;;;-0.50;99.90;;;;;;5056436;28;20074;-81
2022/01/17 03:48:16;;;;;;;169.63;34.30;;;-0.40;99.90;;;;;;5057399;28;20032;-81
2022/01/17 03:50:42;;;;;;;268.98;36.53;;;-0.50;99.90;;;;;;5057445;28;20060;-81
2022/01/17 03:53:08;;;;;;;164.50;29.27;;;-0.50;99.90;;;;;;5055984;28;20493;-81
2022/01/17 03:55:34;;;;;;;371.38;39.78;;;-0.60;99.90;;;;;;5055925;28;20082;-81
2022/01/17 03:58:07;;;;;;;123.30;28.88;;;-0.60;99.90;;;;;;5056831;28;20096;-81
2022/01/17 04:00:37;;;;;;;117.82;26.77;;;-0.70;99.90;;;;;;5057399;28;20047;-81
2022/01/17 04:03:03;;;;;;;95.75;26.85;;;-0.60;99.90;;;;;;5057190;28;20021;-82
2022/01/17 04:05:29;;;;;;;89.93;26.42;;;-0.60;99.90;;;;;;5055952;28;20383;-82
2022/01/17 04:07:55;;;;;;;157.05;27.92;;;-0.70;99.90;;;;;;5056868;28;20120;-81
2022/01/17 04:10:20;;;;;;;153.38;26.77;;;-0.70;99.90;;;;;;5057140;28;20064;-82
2022/01/17 04:12:47;;;;;;;177.75;28.23;;;-0.70;99.90;;;;;;5056894;28;20028;-82
2022/01/17 04:15:13;;;;;;;71.20;28.13;;;-0.70;99.90;;;;;;5056842;28;20032;-82
2022/01/17 04:17:41;;;;;;;82.78;29.38;;;-0.70;99.90;;;;;;5055563;28;20397;-81
2022/01/17 04:20:12;;;;;;;62.92;26.77;;;-0.70;99.90;;;;;;5057056;28;20033;-81
2022/01/17 04:22:42;;;;;;;91.47;29.52;;;-0.60;99.90;;;;;;5057156;28;20025;-82
2022/01/17 04:25:09;;;;;;;71.68;28.42;;;-0.60;99.90;;;;;;5055566;28;20071;-82
2022/01/17 04:27:35;;;;;;;83.07;27.70;;;-0.60;99.90;;;;;;5055552;28;20111;-82
2022/01/17 04:30:03;;;;;;;89.22;26.60;;;-0.50;99.90;;;;;;5056525;28;20074;-82
2022/01/17 04:32:29;;;;;;;119.43;27.88;;;-0.50;99.90;;;;;;5056994;28;20021;-81
2022/01/17 04:34:55;;;;;;;88.10;27.88;;;-0.60;99.90;;;;;;5056663;28;20064;-81
2022/01/17 04:37:20;;;;;;;90.57;28.27;;;-0.70;99.90;;;;;;5057036;28;20166;-82
2022/01/17 04:39:46;;;;;;;97.95;28.27;;;-0.70;99.90;;;;;;5056714;28;20435;-81
2022/01/17 04:42:13;;;;;;;72.25;26.02;;;-0.70;99.90;;;;;;5058714;28;20029;-81
2022/01/17 04:47:25;;;;;;;62.83;27.13;;;-0.70;99.90;;;;;;5060921;28;20036;-82
2022/01/17 04:49:51;;;;;;;56.58;27.05;;;-0.70;99.90;;;;;;5060656;28;20052;-82
2022/01/17 04:52:17;;;;;;;70.97;27.17;;;-0.60;99.90;;;;;;5060870;28;20076;-81
2022/01/17 04:54:44;;;;;;;107.68;25.75;;;-0.60;99.90;;;;;;5060810;28;20665;-82
2022/01/17 04:57:12;;;;;;;80.13;26.60;;;-0.70;99.90;;;;;;5061200;28;20025;-82
2022/01/17 04:59:42;;;;;;;46.70;24.30;;;-0.70;99.90;;;;;;5059531;28;20059;-81
2022/01/17 05:02:09;;;;;;;61.40;24.80;;;-0.70;99.90;;;;;;5061000;28;20021;-81
2022/01/17 05:04:35;;;;;;;56.85;24.73;;;-0.70;99.90;;;;;;5060484;28;20029;-81
2022/01/17 05:07:01;;;;;;;55.35;24.83;;;-0.70;99.90;;;;;;5060629;28;20021;-82
2022/01/17 05:09:26;;;;;;;72.15;23.85;;;-0.60;99.90;;;;;;5060360;28;20394;-82
2022/01/17 05:11:52;;;;;;;68.10;26.92;;;-0.70;99.90;;;;;;5058407;28;20025;-82
2022/01/17 05:14:18;;;;;;;75.45;25.13;;;-0.60;99.90;;;;;;5058702;28;20512;-82
2022/01/17 05:16:52;;;;;;;105.63;28.75;;;-0.70;99.90;;;;;;5060425;28;20061;-82
2022/01/17 05:22:02;;;;;;;249.30;33.20;;;-0.70;99.90;;;;;;5060391;28;20120;-82
2022/01/17 05:24:28;;;;;;;152.98;29.50;;;-0.80;99.90;;;;;;5060229;28;20056;-82
2022/01/17 05:26:54;;;;;;;164.65;30.27;;;-1.00;99.90;;;;;;5060059;28;20107;-82
2022/01/17 05:29:21;;;;;;;74.63;26.23;;;-1.00;99.90;;;;;;5059844;28;20112;-82
2022/01/17 05:31:47;;;;;;;55.05;26.67;;;-0.90;99.90;;;;;;5055232;28;20378;-82
2022/01/17 05:34:13;;;;;;;56.05;25.65;;;-0.80;99.90;;;;;;5059356;28;20040;-82
2022/01/17 05:36:39;;;;;;;70.03;26.90;;;-0.80;99.90;;;;;;5059292;28;20385;-81
2022/01/17 05:39:05;;;;;;;76.47;28.70;;;-0.70;99.90;;;;;;5044922;28;20022;-82
2022/01/17 05:41:31;;;;;;;59.90;25.90;;;-0.70;99.90;;;;;;5042810;28;20065;-82
2022/01/17 05:43:57;;;;;;;72.45;24.27;;;-0.80;99.90;;;;;;5042614;28;20507;-81
2022/01/17 05:46:24;;;;;;;74.38;24.83;;;-0.80;99.90;;;;;;5056507;28;20035;-82
2022/01/17 05:48:49;;;;;;;146.23;27.88;;;-0.90;99.90;;;;;;5042738;28;20104;-82
2022/01/17 05:51:15;;;;;;;266.83;34.03;;;-0.90;99.90;;;;;;5056287;28;20064;-82
2022/01/17 05:53:41;;;;;;;184.73;30.13;;;-1.00;99.90;;;;;;5058246;28;20017;-82
2022/01/17 05:56:07;;;;;;;40.58;22.23;;;-1.00;99.90;;;;;;5041231;28;20021;-81
2022/01/17 05:58:32;;;;;;;125.80;25.73;;;-1.10;99.90;;;;;;5039522;28;20044;-82
2022/01/17 06:00:58;;;;;;;67.43;26.48;;;-1.00;99.90;;;;;;5046765;28;20113;-81
2022/01/17 06:03:25;;;;;;;120.18;26.05;;;-1.10;99.90;;;;;;5040938;28;20085;-82
2022/01/17 06:05:52;;;;;;;61.80;23.15;;;-1.10;99.90;;;;;;5038893;28;20021;-82
2022/01/17 06:08:17;;;;;;;70.47;23.23;;;-1.10;99.90;;;;;;5040596;28;20037;-82
2022/01/17 06:10:44;;;;;;;69.32;26.50;;;-1.10;99.90;;;;;;5046739;28;20108;-82
2022/01/17 06:13:09;;;;;;;90.82;23.50;;;-1.10;99.90;;;;;;5052716;28;20441;-82
2022/01/17 06:15:35;;;;;;;70.35;24.67;;;-1.20;99.90;;;;;;5047872;28;20111;-82
2022/01/17 06:18:01;;;;;;;35.65;21.38;;;-1.20;99.90;;;;;;5060364;28;20078;-82
2022/01/17 06:20:27;;;;;;;57.70;19.73;;;-1.30;99.90;;;;;;5040811;28;20444;-82
2022/01/17 06:22:53;;;;;;;37.00;22.13;;;-1.30;99.90;;;;;;5047057;28;20033;-82
2022/01/17 06:25:18;;;;;;;45.67;21.90;;;-1.40;99.90;;;;;;5050999;28;20082;-82
2022/01/17 06:27:44;;;;;;;149.73;23.30;;;-1.40;99.90;;;;;;5058116;28;20091;-82
2022/01/17 06:30:13;;;;;;;125.20;22.38;;;-1.40;99.90;;;;;;5055010;28;20037;-81
2022/01/17 06:32:40;;;;;;;117.93;25.65;;;-1.40;99.90;;;;;;5047608;28;20021;-82
2022/01/17 06:35:06;;;;;;;91.13;24.40;;;-1.50;99.90;;;;;;5057518;28;20020;-82
2022/01/17 06:37:31;;;;;;;118.97;26.08;;;-1.50;99.90;;;;;;5057840;28;20013;-82
2022/01/17 06:39:57;;;;;;;82.65;25.65;;;-1.40;99.90;;;;;;5059323;28;20039;-82
2022/01/17 06:42:23;;;;;;;120.68;27.52;;;-1.40;99.90;;;;;;5055275;28;20033;-82
2022/01/17 06:44:50;;;;;;;167.75;30.10;;;-1.30;99.90;;;;;;5058768;28;20116;-82
2022/01/17 06:47:16;;;;;;;194.02;31.42;;;-1.30;99.90;;;;;;5059239;28;20091;-82
2022/01/17 06:49:42;;;;;;;176.73;30.83;;;-1.30;99.90;;;;;;5058664;28;20692;-82
2022/01/17 06:52:08;;;;;;;221.35;54.85;;;-1.20;99.90;;;;;;5058814;28;20013;-82
2022/01/17 06:54:34;;;;;;;103.13;34.28;;;-1.20;99.90;;;;;;5057204;28;20035;-82
2022/01/17 06:57:00;;;;;;;123.70;37.60;;;-1.10;99.90;;;;;;5057039;28;20481;-82
2022/01/17 06:59:25;;;;;;;99.32;43.08;;;-1.00;99.90;;;;;;5056924;28;20046;-81
2022/01/17 07:01:51;;;;;;;288.33;40.03;;;-0.90;99.90;;;;;;5057167;28;20037;-82
2022/01/17 07:04:17;;;;;;;300.52;47.17;;;-0.90;99.90;;;;;;5056847;28;20086;-82
2022/01/17 07:06:43;;;;;;;208.43;51.58;;;-0.90;99.90;;;;;;5057203;28;20021;-82
2022/01/17 07:09:11;;;;;;;241.23;41.35;;;-0.90;99.90;;;;;;5058148;28;20049;-82
2022/01/17 07:11:38;;;;;;;266.25;42.53;;;-0.90;99.90;;;;;;5052445;28;20028;-82
2022/01/17 07:14:11;;;;;;;352.13;69.50;;;-0.90;99.90;;;;;;5054429;28;20417;-82
2022/01/17 07:16:38;;;;;;;327.45;45.92;;;-0.90;99.90;;;;;;5056856;28;20115;-82
2022/01/17 07:19:05;;;;;;;452.13;46.70;;;-0.80;99.90;;;;;;5056686;28;20083;-82
2022/01/17 07:21:32;;;;;;;310.95;39.42;;;-0.80;99.90;;;;;;5058683;28;20028;-81
2022/01/17 07:23:59;;;;;;;513.65;57.15;;;-0.80;99.90;;;;;;5057510;28;20078;-82
2022/01/17 07:26:24;;;;;;;320.55;46.03;;;-0.90;99.90;;;;;;5058233;28;20424;-81
2022/01/17 07:28:50;;;;;;;128.93;34.47;;;-0.80;99.90;;;;;;5059682;28;20086;-82
2022/01/17 07:31:17;;;;;;;264.77;42.15;;;-0.80;99.90;;;;;;5054303;28;20025;-82
2022/01/17 07:33:42;;;;;;;289.65;37.97;;;-0.80;99.90;;;;;;5061354;28;20477;-82
2022/01/17 07:36:08;;;;;;;159.32;32.20;;;-0.80;99.90;;;;;;5059140;28;20017;-83
2022/01/17 07:38:35;;;;;;;306.15;43.50;;;-0.80;99.90;;;;;;5057398;28;20432;-83
2022/01/17 07:41:02;;;;;;;202.88;37.75;;;-0.80;99.90;;;;;;5052133;28;20187;-83
2022/01/17 07:43:28;;;;;;;181.40;37.03;;;-0.80;99.90;;;;;;5046207;28;20032;-82
2022/01/17 07:46:13;;;;;;;247.80;35.53;;;-0.80;99.90;;;;;;5048463;28;20022;-82
2022/01/17 07:49:03;;;;;;;363.75;46.97;;;-0.80;99.90;;;;;;5057062;28;20055;-82
2022/01/17 07:51:30;;;;;;;154.70;38.10;;;-0.80;99.90;;;;;;5041947;28;20029;-82
2022/01/17 07:53:56;;;;;;;124.93;35.42;;;-0.80;99.90;;;;;;5047394;28;20025;-82
2022/01/17 07:56:23;;;;;;;131.02;39.83;;;-0.70;99.90;;;;;;5055676;28;20029;-78
2022/01/17 07:58:49;;;;;;;200.80;42.88;;;-0.70;99.90;;;;;;5056932;28;20017;-77
2022/01/17 08:01:15;;;;;;;158.63;40.45;;;-0.60;99.90;;;;;;5057327;28;20504;-77
2022/01/17 08:03:41;;;;;;;116.22;46.03;;;-0.60;99.90;;;;;;5057267;28;20135;-78
2022/01/17 08:06:07;;;;;;;153.05;49.85;;;-0.50;99.90;;;;;;5057144;28;20025;-78
2022/01/17 08:08:33;;;;;;;196.30;40.78;;;-0.40;99.90;;;;;;5056793;28;20048;-78
2022/01/17 08:10:59;;;;;;;278.00;43.22;;;-0.50;99.90;;;;;;5057018;28;20032;-78
2022/01/17 08:13:24;;;;;;;205.55;44.47;;;-0.50;99.90;;;;;;5056883;28;20036;-78
2022/01/17 08:15:50;;;;;;;147.35;38.65;;;-0.40;99.90;;;;;;5054650;28;20028;-78
2022/01/17 08:18:16;;;;;;;189.43;41.75;;;-0.50;99.90;;;;;;5057135;28;20020;-78
2022/01/17 08:20:43;;;;;;;190.10;43.20;;;-0.40;99.90;;;;;;5056891;28;20056;-78
2022/01/17 08:23:10;;;;;;;198.73;41.53;;;-0.50;99.90;;;;;;5055837;28;20025;-78
2022/01/17 08:25:37;;;;;;;98.85;40.58;;;-0.50;99.90;;;;;;5056681;28;20508;-78
2022/01/17 08:28:03;;;;;;;217.98;43.45;;;-0.40;99.90;;;;;;5056666;28;20029;-78
2022/01/17 08:30:30;;;;;;;183.00;45.28;;;-0.30;99.90;;;;;;5055080;28;20033;-78
2022/01/17 08:32:56;;;;;;;211.48;42.85;;;-0.30;99.90;;;;;;5055317;28;20076;-78
2022/01/17 08:35:22;;;;;;;215.60;55.47;;;-0.30;99.90;;;;;;5054396;28;20021;-79
2022/01/17 08:37:48;;;;;;;236.88;40.58;;;-0.30;99.90;;;;;;5054749;28;20421;-78
2022/01/17 08:40:15;;;;;;;122.13;37.10;;;-0.30;99.90;;;;;;5055528;28;20059;-78
2022/01/17 08:42:41;;;;;;;159.77;40.78;;;-0.30;99.90;;;;;;5056410;28;20036;-78
2022/01/17 08:45:10;;;;;;;123.72;40.53;;;-0.20;99.90;;;;;;5053910;28;20033;-78
2022/01/17 08:47:36;;;;;;;136.68;43.10;;;-0.30;99.90;;;;;;5055902;28;20021;-78
2022/01/17 08:50:05;;;;;;;110.38;35.97;;;-0.30;99.90;;;;;;5053883;28;20032;-78
2022/01/17 08:52:30;;;;;;;181.35;42.47;;;-0.30;99.90;;;;;;5055475;28;20013;-78
2022/01/17 08:54:57;;;;;;;113.50;37.45;;;-0.30;99.90;;;;;;5056652;28;20477;-78
2022/01/17 08:57:23;;;;;;;83.65;37.47;;;-0.30;99.90;;;;;;5056605;28;20108;-78
2022/01/17 08:59:49;;;;;;;80.32;36.85;;;-0.20;99.90;;;;;;5056113;28;20695;-78
2022/01/17 09:02:15;;;;;;;109.72;40.10;;;-0.10;99.90;;;;;;5053517;28;20029;-78
2022/01/17 09:04:41;;;;;;;98.18;42.13;;;0.00;99.90;;;;;;5054665;28;20021;-78
2022/01/17 09:07:15;;;;;;;124.18;40.92;;;0.10;99.90;;;;;;5053286;28;20627;-78
2022/01/17 09:09:44;;;;;;;118.90;43.35;;;0.10;99.90;;;;;;5054364;28;20033;-77
2022/01/17 09:12:11;;;;;;;107.32;41.08;;;0.20;99.90;;;;;;5054752;28;20053;-78
2022/01/17 09:14:38;;;;;;;86.57;36.30;;;0.20;99.90;;;;;;5054525;28;20036;-78
2022/01/17 09:17:09;;;;;;;69.57;34.17;;;0.20;99.90;;;;;;5050318;28;20033;-78
2022/01/17 09:19:37;;;;;;;82.68;37.28;;;0.20;99.90;;;;;;5055248;28;20025;-78
2022/01/17 09:22:05;;;;;;;95.05;38.13;;;0.20;99.90;;;;;;5056512;28;20021;-78
2022/01/17 09:24:31;;;;;;;65.63;34.10;;;0.30;99.90;;;;;;5055287;28;20029;-78
2022/01/17 09:26:57;;;;;;;85.97;34.55;;;0.30;99.90;;;;;;5056319;28;20036;-78
2022/01/17 09:29:22;;;;;;;75.07;35.25;;;0.40;99.90;;;;;;5058087;28;20065;-78
2022/01/17 09:31:48;;;;;;;81.63;34.72;;;0.40;99.90;;;;;;5058489;28;20458;-78
2022/01/17 09:34:14;;;;;;;76.32;35.20;;;0.50;99.90;;;;;;5058736;28;20028;-78
2022/01/17 09:36:41;;;;;;;76.47;37.70;;;0.50;99.90;;;;;;5059638;28;20025;-78
2022/01/17 09:39:07;;;;;;;71.03;33.53;;;0.40;99.90;;;;;;5059599;28;20554;-78
2022/01/17 09:41:33;;;;;;;70.70;33.58;;;0.50;99.90;;;;;;5059749;28;20024;-78
2022/01/17 09:44:00;;;;;;;76.63;35.65;;;0.50;99.90;;;;;;5059778;28;20024;-78
2022/01/17 09:46:33;;;;;;;113.38;43.15;;;0.60;99.90;;;;;;5058526;28;20025;-78
2022/01/17 09:49:13;;;;;;;96.50;35.85;;;0.60;99.90;;;;;;5058098;28;20017;-78
2022/01/17 09:54:27;;;;;;;127.85;57.65;;;0.60;99.90;;;;;;5059756;28;20037;-78
2022/01/17 09:56:54;;;;;;;124.30;59.55;;;0.60;99.90;;;;;;5059515;28;20040;-78
2022/01/17 09:59:20;;;;;;;71.03;34.65;;;0.70;99.90;;;;;;5059309;28;20603;-78
2022/01/17 10:01:47;;;;;;;109.22;53.25;;;0.80;99.90;;;;;;5059546;28;20473;-78
2022/01/17 10:04:13;;;;;;;83.90;35.00;;;0.90;99.90;;;;;;5059434;28;20031;-78
2022/01/17 10:06:41;;;;;;;70.72;32.25;;;0.90;99.90;;;;;;5058290;28;20088;-78
2022/01/17 10:09:21;;;;;;;57.00;27.65;;;0.90;99.90;;;;;;5059167;28;20056;-78
2022/01/17 10:12:07;;;;;;;71.15;33.38;;;1.00;99.90;;;;;;5058167;28;20029;-78
2022/01/17 10:14:59;;;;;;;59.33;32.53;;;0.90;99.90;;;;;;5059233;28;20373;-78
2022/01/17 10:17:42;;;;;;;52.78;30.58;;;0.90;99.90;;;;;;5059330;28;20104;-78
2022/01/17 10:20:10;;;;;;;64.97;30.92;;;0.90;99.90;;;;;;5047116;28;20112;-78
2022/01/17 10:22:46;;;;;;;55.88;31.20;;;1.00;99.90;;;;;;5045175;28;20464;-78
2022/01/17 10:26:00;;;;;;;62.97;30.20;;;1.00;99.90;;;;;;5059345;28;20397;-79
2022/01/17 10:36:56;;;;;;;112.05;54.92;;;1.30;99.90;;;;;;5060114;28;20397;-79
2022/01/17 10:39:22;;;;;;;71.85;34.20;;;1.30;99.90;;;;;;5058921;28;20023;-79
2022/01/17 10:41:48;;;;;;;61.75;31.73;;;1.40;99.90;;;;;;5059260;28;20029;-79
2022/01/17 10:44:37;;;;;;;70.97;33.80;;;1.30;99.90;;;;;;5059342;28;20025;-80
2022/01/17 10:47:24;;;;;;;76.90;32.00;;;1.30;99.90;;;;;;5058890;28;20029;-79
2022/01/17 10:49:53;;;;;;;53.45;31.33;;;1.40;99.90;;;;;;5057218;28;20036;-79
2022/01/17 10:52:34;;;;;;;66.07;31.90;;;1.30;99.90;;;;;;5049332;28;20061;-80
2022/01/17 10:55:06;;;;;;;61.97;30.63;;;1.50;99.90;;;;;;5051427;28;20033;-80
2022/01/17 10:57:42;;;;;;;68.70;30.55;;;1.60;99.90;;;;;;5056116;28;20025;-80
2022/01/17 11:00:16;;;;;;;69.70;32.65;;;1.70;99.90;;;;;;5069802;28;20040;-79
2022/01/17 11:02:52;;;;;;;63.28;33.45;;;1.60;99.90;;;;;;5054062;28;20063;-81
2022/01/17 11:05:21;;;;;;;78.00;33.30;;;1.70;99.90;;;;;;5058389;28;20075;-79
2022/01/17 11:07:50;;;;;;;72.50;38.78;;;1.70;99.90;;;;;;5056663;28;20563;-83
2022/01/17 11:10:26;;;;;;;65.88;34.63;;;1.60;99.90;;;;;;5050656;28;20535;-82
2022/01/17 11:12:55;;;;;;;55.65;32.60;;;1.80;99.90;;;;;;5044357;28;20056;-82
2022/01/17 11:15:22;;;;;;;53.05;29.52;;;1.90;99.90;;;;;;5057863;28;20130;-83
2022/01/17 11:17:55;;;;;;;65.65;32.42;;;2.00;99.90;;;;;;5057911;28;20059;-83
2022/01/17 11:20:26;;;;;;;52.38;31.42;;;2.10;99.90;;;;;;5057449;28;20032;-83
2022/01/17 11:22:55;;;;;;;56.50;28.55;;;2.00;99.90;;;;;;5057715;28;20548;-83
2022/01/17 11:25:24;;;;;;;47.35;30.48;;;2.20;99.90;;;;;;5056774;28;20033;-83
2022/01/17 11:27:51;;;;;;;45.63;27.38;;;2.30;99.90;;;;;;5056492;28;20043;-83
2022/01/17 11:30:17;;;;;;;42.00;26.33;;;2.30;99.90;;;;;;5053064;28;20388;-83
2022/01/17 11:32:48;;;;;;;42.67;27.23;;;2.40;99.90;;;;;;5057864;28;20040;-83
2022/01/17 11:35:16;;;;;;;40.53;25.70;;;2.30;99.90;;;;;;5057851;28;20481;-83
2022/01/17 11:37:45;;;;;;;39.55;25.17;;;2.20;99.90;;;;;;5057956;28;20025;-82
2022/01/17 11:40:13;;;;;;;41.75;27.73;;;2.30;99.90;;;;;;5056508;28;20029;-83
2022/01/17 11:42:51;;;;;;;46.75;28.70;;;2.30;99.90;;;;;;5056073;28;20025;-83
2022/01/17 11:45:22;;;;;;;40.60;25.00;;;2.30;99.90;;;;;;5057690;28;20108;-82
2022/01/17 11:47:50;;;;;;;44.80;29.17;;;2.20;99.90;;;;;;5057331;28;20056;-82
2022/01/17 11:50:28;;;;;;;47.28;29.17;;;2.00;99.90;;;;;;5057519;28;20021;-82
2022/01/17 11:52:55;;;;;;;46.95;30.48;;;2.00;99.90;;;;;;5055526;28;20511;-82
2022/01/17 11:55:42;;;;;;;42.42;27.13;;;2.00;99.90;;;;;;5057990;28;20021;-82
2022/01/17 11:58:27;;;;;;;41.60;27.17;;;2.00;99.90;;;;;;5052965;28;20092;-82
2022/01/17 12:00:59;;;;;;;37.63;24.52;;;1.90;99.90;;;;;;5054099;28;20029;-82
2022/01/17 12:03:26;;;;;;;46.03;28.88;;;1.90;99.90;;;;;;5054663;28;20131;-82
2022/01/17 12:05:53;;;;;;;46.72;30.95;;;2.00;99.90;;;;;;5041465;28;20025;-82
2022/01/17 12:08:24;;;;;;;45.00;29.90;;;2.00;99.90;;;;;;5052792;28;20051;-82
2022/01/17 12:10:53;;;;;;;47.95;30.95;;;2.00;99.90;;;;;;5053861;28;20036;-82
2022/01/17 12:13:21;;;;;;;54.58;33.60;;;2.10;99.90;;;;;;5052626;28;20017;-82
2022/01/17 12:16:12;;;;;;;51.22;33.08;;;2.20;99.90;;;;;;5052576;28;20379;-83
2022/01/17 12:18:40;;;;;;;52.25;34.70;;;2.30;99.90;;;;;;5055378;28;20469;-83
2022/01/17 12:21:35;;;;;;;59.38;37.58;;;2.50;99.90;;;;;;5056944;28;20064;-83
2022/01/17 12:24:19;;;;;;;55.38;35.22;;;2.80;99.90;;;;;;5042992;28;20033;-83
2022/01/17 12:27:25;;;;;;;59.33;36.92;;;3.00;99.90;;;;;;5045022;28;20482;-81
2022/01/17 12:30:08;;;;;;;58.42;35.00;;;3.40;99.90;;;;;;5037832;28;20052;-81
2022/01/17 12:32:36;;;;;;;54.85;35.40;;;3.40;99.90;;;;;;5046067;28;20025;-82
2022/01/17 12:35:04;;;;;;;49.53;30.98;;;3.50;99.90;;;;;;5055555;28;20017;-83
2022/01/17 12:37:44;;;;;;;54.53;33.60;;;3.50;99.90;;;;;;5057211;28;20027;-83
2022/01/17 12:40:13;;;;;;;52.13;30.17;;;3.50;99.90;;;;;;5056764;28;20477;-82
2022/01/17 12:42:59;;;;;;;51.40;31.98;;;3.60;99.90;;;;;;5053671;28;20052;-82
2022/01/17 12:45:36;;;;;;;53.20;32.35;;;3.70;99.90;;;;;;5036948;28;20060;-82
2022/01/17 12:48:25;;;;;;;50.75;31.52;;;3.70;99.90;;;;;;5052811;28;20021;-83
2022/01/17 12:50:53;;;;;;;48.63;31.88;;;3.70;99.90;;;;;;5056585;28;20110;-83
2022/01/17 12:53:22;;;;;;;50.97;32.88;;;3.70;99.90;;;;;;5055925;28;20017;-82
2022/01/17 12:55:53;;;;;;;55.72;34.17;;;3.90;99.90;;;;;;5057717;28;20389;-83
2022/01/17 12:58:26;;;;;;;54.88;33.53;;;3.90;99.90;;;;;;5048690;28;20021;-81